Airport ID:KO69
Update Time (UTC):30/07/2021 02:23
Wind Speed (Knots):6
Wind Direction (Magnetic):290
Temperature (°C):20
Dew Point (°C):12
Humidity (%):62
Altimeter (inHg):29.89
Density Altitude (Feet):
Visibility:10+
Clouds (Hundreds of feet):CLR
Present Weather:
METAR:METAR KO69 300220Z AUTO VRB06G11KT 10SM CLR 20/12 A2989 RMK A01

The data displayed is for advisory purposes only and is not to be used for flight planning or operations.